Terminal Aerodrome Forecast
Issued by NWS

Home | Current Version | Previous Version | Text Only | Print | Product List | Glossary On
Versions: 1 2 3 4 5 6 7 8 9 10 11 12 13 14 15 16 17 18 19 20
094
FTUS43 KMQT 232334
TAFCMX
TAF
KCMX 232334Z 2400/2424 29009KT P6SM BKN030
     FM240200 34007KT P6SM SCT030 BKN100
     FM240500 02008KT P6SM BKN070
     FM240900 04010KT P6SM VCSH OVC030
     FM241400 05015G25KT 5SM -SN OVC015
     FM241800 05018G28KT 1 1/2SM -SN BLSN OVC015=

USA.gov is the U.S. government's official web portal to all federal, state and local government web resources and services.